Time;durP1;ratioP1;P1;durP2;ratioP2;P2;SDS_P1;SDS_P2;PMS_P1;PMS_P2;Temp;Humidity;BMP_temperature;BMP_pressure;BME280_temperature;BME280_humidity;BME280_pressure;Samples;Min_cycle;Max_cycle;Signal;HPM_P1;HPM_P2
2023/09/27 00:01:32;;;;;;;14.70;6.50;;;;;;;13.73;100.00;100678.75;5016631;28;20299;-58
2023/09/27 00:04:05;;;;;;;16.00;7.73;;;;;;;13.78;100.00;100679.50;5027263;28;20291;-57
2023/09/27 00:06:36;;;;;;;17.77;7.50;;;;;;;13.78;100.00;100671.63;5016720;28;20319;-58
2023/09/27 00:09:07;;;;;;;15.47;7.70;;;;;;;13.81;100.00;100676.81;5023205;28;20326;-58
2023/09/27 00:11:38;;;;;;;23.40;9.40;;;;;;;13.93;100.00;100680.06;5027175;28;20305;-59
2023/09/27 00:14:09;;;;;;;20.77;8.33;;;;;;;13.92;100.00;100683.56;5016558;28;20282;-55
2023/09/27 00:16:39;;;;;;;15.80;7.07;;;;;;;13.96;100.00;100696.59;5039055;28;20582;-57
2023/09/27 00:19:11;;;;;;;12.87;6.83;;;;;;;14.02;100.00;100695.59;5036101;28;21040;-58
2023/09/27 00:21:42;;;;;;;11.73;6.57;;;;;;;14.07;100.00;100698.97;5046454;28;20286;-59
2023/09/27 00:24:13;;;;;;;15.70;7.00;;;;;;;14.12;100.00;100702.34;5036339;28;20271;-57
2023/09/27 00:26:43;;;;;;;14.87;7.00;;;;;;;14.14;100.00;100705.81;5046836;28;20778;-56
2023/09/27 00:29:14;;;;;;;13.10;6.53;;;;;;;14.24;100.00;100704.69;5036017;28;20289;-59
2023/09/27 00:31:45;;;;;;;11.67;6.27;;;;;;;14.33;100.00;100710.63;5046386;28;20266;-58
2023/09/27 00:34:17;;;;;;;14.23;6.47;;;;;;;14.43;100.00;100701.63;5036333;28;20278;-59
2023/09/27 00:36:47;;;;;;;11.90;5.70;;;;;;;14.50;100.00;100702.31;5046715;28;20322;-58
2023/09/27 00:39:19;;;;;;;15.00;5.57;;;;;;;14.57;100.00;100703.91;5036057;28;20271;-56
2023/09/27 00:41:49;;;;;;;10.00;5.50;;;;;;;14.57;100.00;100710.03;5045169;28;20360;-57
2023/09/27 00:44:20;;;;;;;12.87;5.90;;;;;;;14.56;100.00;100708.31;5035872;28;20838;-58
2023/09/27 00:46:52;;;;;;;10.77;5.60;;;;;;;14.60;100.00;100699.44;5045767;28;20283;-60
2023/09/27 00:49:26;;;;;;;12.20;5.70;;;;;;;14.64;100.00;100701.06;5035852;28;20352;-60
2023/09/27 00:51:57;;;;;;;12.03;5.63;;;;;;;14.73;100.00;100693.88;5045888;28;20279;-59
2023/09/27 00:54:28;;;;;;;10.53;5.20;;;;;;;14.84;100.00;100697.06;5024669;28;20386;-59
2023/09/27 00:56:59;;;;;;;9.83;5.70;;;;;;;14.95;100.00;100695.00;5025757;28;20298;-57
2023/09/27 00:59:31;;;;;;;8.70;5.70;;;;;;;15.10;100.00;100691.94;5016297;28;20365;-59
2023/09/27 01:02:01;;;;;;;9.33;5.47;;;;;;;15.24;100.00;100699.44;5034842;28;20301;-57
2023/09/27 01:04:34;;;;;;;10.67;5.50;;;;;;;15.32;100.00;100686.06;5034912;28;20287;-59
2023/09/27 01:07:05;;;;;;;10.00;5.10;;;;;;;15.44;100.00;100677.78;5046593;28;20295;-58
2023/09/27 01:09:37;;;;;;;10.20;4.90;;;;;;;15.52;100.00;100675.81;5039226;28;20318;-58
2023/09/27 01:12:08;;;;;;;8.37;4.80;;;;;;;15.70;100.00;100673.53;5034821;28;20598;-57
2023/09/27 01:14:38;;;;;;;10.07;5.50;;;;;;;15.82;100.00;100673.16;5046045;28;20795;-60
2023/09/27 01:17:15;;;;;;;12.87;5.40;;;;;;;15.70;100.00;100647.19;5034562;28;20745;-60
2023/09/27 01:19:47;;;;;;;10.63;5.43;;;;;;;15.81;100.00;100676.69;5044906;28;20341;-58
2023/09/27 01:22:18;;;;;;;11.70;5.47;;;;;;;15.73;100.00;100684.00;5015034;28;20341;-58
2023/09/27 01:24:52;;;;;;;9.83;5.53;;;;;;;15.77;100.00;100674.22;5025024;28;20283;-58
2023/09/27 01:27:24;;;;;;;9.67;5.13;;;;;;;15.86;100.00;100661.59;5014443;28;20382;-56
2023/09/27 01:29:54;;;;;;;10.07;5.20;;;;;;;16.00;100.00;100660.28;5024966;28;20610;-58
2023/09/27 01:32:25;;;;;;;7.47;4.93;;;;;;;16.20;100.00;100657.88;5015023;28;20348;-59
2023/09/27 01:34:56;;;;;;;8.17;5.20;;;;;;;16.53;100.00;100655.88;5024462;28;20275;-59
2023/09/27 01:37:27;;;;;;;8.77;4.70;;;;;;;16.81;100.00;100662.84;5014834;28;20816;-58
2023/09/27 01:39:59;;;;;;;7.60;4.57;;;;;;;17.05;100.00;100663.75;5024927;28;20283;-58
2023/09/27 01:42:29;;;;;;;8.23;4.63;;;;;;;17.06;100.00;100657.53;5015288;28;20296;-59
2023/09/27 01:45:03;;;;;;;5.67;4.20;;;;;;;17.11;99.96;100663.50;5025445;28;20310;-56
2023/09/27 01:47:34;;;;;;;7.97;3.67;;;;;;;17.14;98.87;100668.66;5015358;28;20283;-59
2023/09/27 01:50:06;;;;;;;7.37;4.40;;;;;;;17.16;97.57;100661.53;5031100;28;20286;-59
2023/09/27 01:52:36;;;;;;;6.93;4.20;;;;;;;17.20;97.13;100654.38;5022609;28;20286;-59
2023/09/27 01:55:09;;;;;;;8.20;4.20;;;;;;;17.10;97.38;100651.22;5016335;28;20609;-57
2023/09/27 01:57:40;;;;;;;11.20;7.07;;;;;;;16.88;98.07;100650.28;5024333;28;20754;-57
2023/09/27 02:00:11;;;;;;;10.40;5.70;;;;;;;16.72;98.96;100656.06;5014375;28;20271;-58
2023/09/27 02:02:41;;;;;;;17.33;12.80;;;;;;;16.66;99.53;100656.28;5025368;28;20789;-57
2023/09/27 02:05:12;;;;;;;14.07;9.23;;;;;;;16.69;99.60;100650.06;5014719;28;20459;-60
2023/09/27 02:07:43;;;;;;;7.17;4.33;;;;;;;16.81;99.39;100650.50;5024610;28;20357;-60
2023/09/27 02:10:15;;;;;;;6.93;3.60;;;;;;;16.55;98.23;100616.25;5014728;28;20738;-59
2023/09/27 02:12:46;;;;;;;8.73;3.60;;;;;;;16.90;98.59;100643.16;5024983;28;20271;-58
2023/09/27 02:15:18;;;;;;;7.03;3.50;;;;;;;16.95;97.72;100630.69;5014410;28;20343;-55
2023/09/27 02:17:48;;;;;;;6.10;3.50;;;;;;;16.99;97.31;100646.31;5017278;28;20845;-59
2023/09/27 02:20:19;;;;;;;7.47;3.50;;;;;;;17.08;96.73;100642.50;5015075;28;20720;-58
2023/09/27 02:22:49;;;;;;;8.63;4.10;;;;;;;17.22;96.33;100640.22;5025772;28;20326;-58
2023/09/27 02:25:22;;;;;;;7.93;3.50;;;;;;;17.36;96.11;100644.09;5015126;28;20767;-58
2023/09/27 02:27:52;;;;;;;6.50;3.43;;;;;;;17.32;95.92;100639.84;5025127;28;20303;-58
2023/09/27 02:30:23;;;;;;;8.63;4.17;;;;;;;17.32;96.31;100642.47;5014407;28;20290;-57
2023/09/27 02:32:54;;;;;;;10.67;4.30;;;;;;;17.42;96.60;100636.81;5024651;28;20279;-58
2023/09/27 02:35:24;;;;;;;6.10;3.50;;;;;;;17.57;95.91;100634.47;5014548;28;20292;-58
2023/09/27 02:37:55;;;;;;;11.67;4.40;;;;;;;17.68;94.41;100643.69;5024833;28;20361;-58
2023/09/27 02:40:27;;;;;;;11.30;3.47;;;;;;;17.76;92.33;100645.16;5034525;28;21054;-56
2023/09/27 02:42:58;;;;;;;6.50;3.17;;;;;;;17.83;91.80;100644.03;5044329;28;20397;-60
2023/09/27 02:45:29;;;;;;;8.37;3.60;;;;;;;17.87;90.83;100653.53;5034005;28;20273;-57
2023/09/27 02:47:59;;;;;;;7.67;4.03;;;;;;;17.78;90.57;100645.97;5043370;28;20279;-58
2023/09/27 02:50:30;;;;;;;6.37;3.40;;;;;;;17.89;92.37;100646.41;5033784;28;20301;-59
2023/09/27 02:53:00;;;;;;;10.73;3.60;;;;;;;18.07;92.89;100648.34;5043558;28;20793;-59
2023/09/27 02:55:33;;;;;;;7.93;3.67;;;;;;;18.14;92.53;100640.13;5033024;28;20311;-58
2023/09/27 02:58:05;;;;;;;10.17;3.70;;;;;;;18.18;92.82;100636.44;5043705;28;20637;-58
2023/09/27 03:00:36;;;;;;;6.77;3.33;;;;;;;18.21;93.28;100631.00;5013524;28;20379;-56
2023/09/27 03:03:07;;;;;;;10.97;3.70;;;;;;;18.23;93.59;100629.19;5017658;28;20367;-56
2023/09/27 03:05:38;;;;;;;6.50;3.57;;;;;;;18.20;93.09;100629.31;5038902;28;20353;-57
2023/09/27 03:08:09;;;;;;;7.00;3.43;;;;;;;18.18;92.63;100636.44;5043205;28;20314;-56
2023/09/27 03:10:42;;;;;;;7.53;3.50;;;;;;;18.11;91.52;100631.38;5047703;28;20282;-58
2023/09/27 03:13:12;;;;;;;7.53;3.23;;;;;;;17.94;90.63;100636.53;5037111;28;20287;-59
2023/09/27 03:15:43;;;;;;;8.07;3.70;;;;;;;17.78;90.56;100624.84;5046920;28;20650;-57
2023/09/27 03:18:15;;;;;;;10.33;3.80;;;;;;;17.78;91.42;100627.47;5037044;28;20332;-56
2023/09/27 03:20:46;;;;;;;12.83;5.90;;;;;;;17.74;90.92;100615.28;5047711;28;20764;-56
2023/09/27 03:23:16;;;;;;;9.60;3.90;;;;;;;17.64;90.71;100610.38;5037523;28;20770;-58
2023/09/27 03:25:49;;;;;;;8.27;4.67;;;;;;;17.78;92.05;100606.34;5047110;28;20294;-58
2023/09/27 03:28:19;;;;;;;7.47;3.30;;;;;;;17.76;91.24;100605.53;5036720;28;20283;-57
2023/09/27 03:30:50;;;;;;;16.10;3.30;;;;;;;17.62;90.95;100601.66;5046993;28;20287;-58
2023/09/27 03:33:21;;;;;;;6.97;3.10;;;;;;;17.54;91.50;100595.81;5036550;28;20279;-58
2023/09/27 03:35:51;;;;;;;6.93;3.43;;;;;;;17.49;91.83;100592.50;5046815;28;20358;-55
2023/09/27 03:38:22;;;;;;;5.93;3.37;;;;;;;17.52;91.96;100594.16;5036801;28;20339;-56
2023/09/27 03:40:54;;;;;;;5.80;3.23;;;;;;;17.53;92.12;100586.19;5046819;28;20312;-57
2023/09/27 03:43:25;;;;;;;6.07;3.27;;;;;;;17.35;92.89;100573.72;5024429;28;20329;-56
2023/09/27 03:45:55;;;;;;;7.17;3.33;;;;;;;17.41;93.69;100576.09;5027271;28;20589;-58
2023/09/27 03:48:26;;;;;;;6.80;3.60;;;;;;;17.56;94.88;100575.47;5017807;28;20356;-59
2023/09/27 03:50:57;;;;;;;6.57;3.40;;;;;;;17.80;94.74;100570.16;5027453;28;20287;-59
2023/09/27 03:53:27;;;;;;;6.23;3.30;;;;;;;17.99;95.48;100563.16;5018385;28;20282;-59
2023/09/27 03:56:00;;;;;;;5.23;3.20;;;;;;;18.24;94.84;100562.97;5028086;28;20279;-57
2023/09/27 03:58:30;;;;;;;7.17;3.47;;;;;;;18.52;94.90;100575.88;5017808;28;20935;-59
2023/09/27 04:01:01;;;;;;;4.57;3.20;;;;;;;18.70;93.56;100582.13;5027884;28;20287;-57
2023/09/27 04:03:31;;;;;;;7.37;3.20;;;;;;;18.78;90.24;100578.31;5036632;28;20820;-58
2023/09/27 04:06:02;;;;;;;6.83;2.67;;;;;;;18.78;87.86;100573.84;5046790;28;20287;-57
2023/09/27 04:08:34;;;;;;;6.57;3.30;;;;;;;18.82;89.08;100570.16;5023316;28;20287;-58
2023/09/27 04:11:08;;;;;;;6.60;3.17;;;;;;;18.60;88.30;100532.31;5007580;28;20739;-57
2023/09/27 04:13:39;;;;;;;5.10;3.33;;;;;;;18.65;88.29;100559.44;5002515;28;20375;-57
2023/09/27 04:16:09;;;;;;;5.73;3.53;;;;;;;18.42;86.81;100566.63;4996531;28;20619;-57
2023/09/27 04:18:39;;;;;;;9.17;3.83;;;;;;;18.29;87.54;100565.41;5007573;28;20303;-58
2023/09/27 04:21:11;;;;;;;7.93;3.17;;;;;;;18.16;87.31;100558.94;4997837;28;20296;-59
2023/09/27 04:23:44;;;;;;;8.03;3.10;;;;;;;18.25;87.40;100574.44;5008149;28;20379;-58
2023/09/27 04:26:16;;;;;;;11.03;3.23;;;;;;;18.31;87.46;100566.22;4997783;28;20659;-58
2023/09/27 04:28:47;;;;;;;9.13;4.40;;;;;;;18.28;86.69;100566.34;5007228;28;20350;-57
2023/09/27 04:31:17;;;;;;;7.30;3.17;;;;;;;18.34;86.42;100563.44;4997455;28;20826;-58
2023/09/27 04:33:48;;;;;;;7.73;3.50;;;;;;;18.47;86.29;100554.03;5007755;28;20288;-58
2023/09/27 04:36:19;;;;;;;8.43;3.40;;;;;;;18.38;85.84;100554.44;4997660;28;20287;-57
2023/09/27 04:38:49;;;;;;;7.53;3.67;;;;;;;18.13;86.20;100490.31;5012638;28;20383;-56
2023/09/27 04:41:22;;;;;;;6.77;3.20;;;;;;;18.66;86.78;100542.63;5017003;28;20291;-59
2023/09/27 04:43:53;;;;;;;7.07;3.10;;;;;;;18.81;86.20;100563.13;5026722;28;20801;-58
2023/09/27 04:46:23;;;;;;;6.90;3.57;;;;;;;18.77;85.41;100550.97;5015881;28;20282;-57
2023/09/27 04:48:53;;;;;;;9.60;3.57;;;;;;;18.80;85.25;100550.81;5025838;28;20364;-56
2023/09/27 04:51:24;;;;;;;6.10;3.27;;;;;;;18.87;86.91;100546.09;5018304;28;20371;-56
2023/09/27 04:53:54;;;;;;;6.23;3.27;;;;;;;18.82;86.73;100541.03;5045523;28;20289;-58
2023/09/27 04:56:27;;;;;;;8.73;3.30;;;;;;;18.91;86.32;100532.63;5035649;28;20624;-57
2023/09/27 04:58:58;;;;;;;8.23;4.13;;;;;;;19.06;84.14;100535.50;5045777;28;20366;-58
2023/09/27 05:01:29;;;;;;;6.53;3.40;;;;;;;19.02;82.56;100533.91;5034691;28;20798;-58
2023/09/27 05:03:59;;;;;;;8.93;3.77;;;;;;;18.86;82.31;100524.06;5045433;28;20733;-57
2023/09/27 05:06:30;;;;;;;7.50;3.30;;;;;;;18.90;83.53;100541.53;5034773;28;20781;-58
2023/09/27 05:09:01;;;;;;;7.60;3.23;;;;;;;19.06;85.74;100530.22;5051212;28;20368;-56
2023/09/27 05:11:33;;;;;;;6.93;3.30;;;;;;;19.35;84.26;100527.03;5035052;28;20290;-59
2023/09/27 05:14:05;;;;;;;7.60;3.63;;;;;;;19.50;82.88;100524.56;5044780;28;20691;-58
2023/09/27 05:16:38;;;;;;;9.53;3.27;;;;;;;19.37;79.37;100519.00;5028157;28;20612;-57
2023/09/27 05:19:09;;;;;;;10.23;3.93;;;;;;;19.44;80.00;100530.16;5015529;28;20291;-59
2023/09/27 05:21:39;;;;;;;9.73;3.67;;;;;;;19.48;79.62;100521.13;5025736;28;20290;-58
2023/09/27 05:24:11;;;;;;;7.37;2.73;;;;;;;19.21;79.70;100513.56;5015562;28;20286;-57
2023/09/27 05:26:44;;;;;;;8.07;3.03;;;;;;;19.17;81.36;100543.81;5026208;28;20654;-57
2023/09/27 05:29:14;;;;;;;7.77;3.33;;;;;;;19.03;82.46;100543.59;5015051;28;20306;-58
2023/09/27 05:31:45;;;;;;;6.47;3.30;;;;;;;18.88;82.64;100537.22;5025150;28;20381;-57
2023/09/27 05:34:16;;;;;;;9.83;3.63;;;;;;;18.93;81.91;100549.31;5015056;28;20828;-58
2023/09/27 05:36:46;;;;;;;7.20;2.90;;;;;;;19.01;82.90;100548.09;5025080;28;20362;-60
2023/09/27 05:39:17;;;;;;;5.20;3.20;;;;;;;19.03;84.31;100541.81;5015361;28;20279;-56
2023/09/27 05:41:49;;;;;;;8.43;3.13;;;;;;;19.01;84.17;100533.06;5026211;28;20271;-58
2023/09/27 05:44:20;;;;;;;6.67;3.20;;;;;;;19.01;82.56;100527.78;5024659;28;20279;-58
2023/09/27 05:46:50;;;;;;;9.10;3.43;;;;;;;18.98;82.10;100521.78;5044757;28;20295;-57
2023/09/27 05:49:25;;;;;;;11.77;3.37;;;;;;;19.01;82.27;100537.50;5033956;28;20386;-55
2023/09/27 05:51:56;;;;;;;11.63;3.53;;;;;;;18.95;81.22;100544.81;5044227;28;20362;-57
2023/09/27 05:54:26;;;;;;;8.17;3.43;;;;;;;18.98;82.01;100541.16;5033564;28;20363;-57
2023/09/27 05:56:59;;;;;;;10.13;3.60;;;;;;;19.05;83.44;100544.41;5044037;28;20332;-57
2023/09/27 05:59:29;;;;;;;6.23;3.30;;;;;;;19.11;83.51;100541.44;5033989;28;20824;-57
2023/09/27 06:02:00;;;;;;;10.63;3.73;;;;;;;19.12;82.47;100535.19;5044159;28;20549;-57
2023/09/27 06:04:31;;;;;;;5.43;3.87;;;;;;;19.08;82.56;100538.94;5034280;28;20734;-59
2023/09/27 06:07:01;;;;;;;12.13;4.47;;;;;;;19.12;81.62;100537.84;5045379;28;20281;-56
2023/09/27 06:09:32;;;;;;;7.07;3.97;;;;;;;19.12;81.29;100537.84;5013025;28;20805;-57
2023/09/27 06:12:04;;;;;;;6.97;4.00;;;;;;;19.15;82.37;100545.69;5024630;28;20352;-57
2023/09/27 06:14:36;;;;;;;12.37;4.20;;;;;;;19.12;82.00;100533.44;5014553;28;20283;-57
2023/09/27 06:17:06;;;;;;;13.60;4.83;;;;;;;19.18;81.28;100540.22;5019976;28;20575;-58
2023/09/27 06:19:37;;;;;;;13.60;7.80;;;;;;;19.10;79.77;100534.44;5024410;28;20310;-58
2023/09/27 06:22:08;;;;;;;10.43;4.40;;;;;;;19.11;82.41;100533.50;5013991;28;20303;-57
2023/09/27 06:24:38;;;;;;;17.30;4.17;;;;;;;19.03;81.06;100530.34;5024405;28;20315;-59
2023/09/27 06:27:11;;;;;;;27.97;4.47;;;;;;;18.86;81.36;100534.66;5014056;28;20284;-57
2023/09/27 06:29:42;;;;;;;15.00;4.03;;;;;;;18.77;82.41;100539.50;5025051;28;20725;-59
2023/09/27 06:32:12;;;;;;;15.73;4.07;;;;;;;18.64;82.42;100540.03;5026523;28;20357;-57
2023/09/27 06:34:43;;;;;;;10.87;3.77;;;;;;;18.60;82.29;100537.63;5043675;28;20377;-57
2023/09/27 06:37:14;;;;;;;8.80;3.73;;;;;;;18.65;83.79;100543.56;5033080;28;20287;-56
2023/09/27 06:39:44;;;;;;;28.67;7.93;;;;;;;18.71;84.87;100556.50;5043252;28;20377;-55
2023/09/27 06:42:16;;;;;;;13.73;4.10;;;;;;;18.70;83.42;100554.78;5033845;28;20759;-58
2023/09/27 06:44:47;;;;;;;15.90;4.40;;;;;;;18.60;82.67;100548.19;5044407;28;20358;-57
2023/09/27 06:47:17;;;;;;;12.80;3.97;;;;;;;18.57;82.75;100548.31;5033264;28;20275;-56
2023/09/27 06:49:48;;;;;;;10.67;3.67;;;;;;;18.49;83.33;100536.28;5043447;28;20351;-61
2023/09/27 06:52:20;;;;;;;11.83;4.17;;;;;;;18.54;83.91;100550.16;5033284;28;20283;-56
2023/09/27 06:54:52;;;;;;;9.43;3.57;;;;;;;18.48;83.27;100545.16;5043669;28;20366;-57
2023/09/27 06:57:24;;;;;;;13.70;4.03;;;;;;;18.39;83.94;100534.97;5033500;28;20367;-57
2023/09/27 06:59:55;;;;;;;16.40;3.63;;;;;;;18.32;84.58;100536.19;5044442;28;20401;-58
2023/09/27 07:02:25;;;;;;;12.60;4.30;;;;;;;18.25;85.18;100537.41;5034378;28;20295;-59
2023/09/27 07:04:56;;;;;;;12.60;4.07;;;;;;;18.19;85.30;100537.66;5043862;28;20286;-57
2023/09/27 07:07:29;;;;;;;12.80;3.90;;;;;;;18.17;85.72;100540.38;5037478;28;20272;-56
2023/09/27 07:09:59;;;;;;;15.13;3.80;;;;;;;18.10;85.51;100537.13;5045489;28;20294;-57
2023/09/27 07:12:32;;;;;;;17.03;4.20;;;;;;;18.06;85.72;100538.19;5032992;28;20275;-57
2023/09/27 07:15:03;;;;;;;19.87;4.03;;;;;;;17.99;86.09;100531.44;5043227;28;20305;-57
2023/09/27 07:17:34;;;;;;;15.97;4.10;;;;;;;17.97;86.57;100546.53;5033108;28;20279;-56
2023/09/27 07:20:12;;;;;;;9.83;3.63;;;;;;;17.92;87.12;100537.03;5043439;28;20283;-55
2023/09/27 07:22:43;;;;;;;12.80;4.30;;;;;;;17.85;87.96;100533.81;5022495;28;20821;-57
2023/09/27 07:25:16;;;;;;;10.83;4.13;;;;;;;17.77;89.02;100530.59;5013983;28;20683;-59
2023/09/27 07:27:49;;;;;;;13.27;3.43;;;;;;;17.69;89.87;100528.25;5024174;28;20290;-57
2023/09/27 07:30:23;;;;;;;11.10;3.70;;;;;;;17.59;91.26;100533.06;5013663;28;20687;-58
2023/09/27 07:32:55;;;;;;;8.27;3.90;;;;;;;17.45;92.11;100525.72;5023887;28;20584;-57
2023/09/27 07:35:29;;;;;;;7.93;3.70;;;;;;;17.34;93.35;100527.06;5013943;28;20285;-56
2023/09/27 07:38:00;;;;;;;8.83;3.83;;;;;;;17.25;94.19;100534.44;5023708;28;20287;-57
2023/09/27 07:40:32;;;;;;;10.87;3.57;;;;;;;17.15;95.08;100538.38;5021304;28;20283;-57
2023/09/27 07:43:04;;;;;;;8.27;3.80;;;;;;;17.08;96.12;100538.69;5023629;28;20283;-57
2023/09/27 07:45:39;;;;;;;7.57;3.53;;;;;;;17.00;97.14;100533.69;5032676;28;20387;-57
2023/09/27 07:48:10;;;;;;;11.27;4.00;;;;;;;16.92;98.13;100530.47;5032570;28;20623;-58
2023/09/27 07:50:42;;;;;;;10.63;3.93;;;;;;;16.80;98.71;100535.31;5043196;28;20402;-57
2023/09/27 07:53:16;;;;;;;9.83;4.73;;;;;;;16.83;99.35;100551.97;5035848;28;20327;-57
2023/09/27 07:55:50;;;;;;;9.67;3.70;;;;;;;16.75;99.83;100550.44;5046870;28;20286;-56
2023/09/27 07:58:23;;;;;;;9.93;3.93;;;;;;;16.69;100.00;100555.06;5037115;28;20283;-57
2023/09/27 08:00:56;;;;;;;7.23;3.73;;;;;;;16.61;100.00;100552.72;5047183;28;20275;-57
2023/09/27 08:03:27;;;;;;;10.07;4.50;;;;;;;16.51;100.00;100551.31;5036580;28;20272;-57
2023/09/27 08:05:58;;;;;;;11.07;4.07;;;;;;;16.33;100.00;100548.44;5047125;28;20287;-58
2023/09/27 08:08:28;;;;;;;8.70;3.50;;;;;;;16.17;100.00;100544.59;5043090;28;20336;-57
2023/09/27 08:11:00;;;;;;;6.13;3.80;;;;;;;16.03;100.00;100539.81;5046595;28;20298;-58
2023/09/27 08:13:32;;;;;;;9.43;3.67;;;;;;;15.91;100.00;100540.25;5035370;28;20289;-58
2023/09/27 08:16:07;;;;;;;7.97;3.27;;;;;;;15.76;100.00;100541.63;5046187;28;20354;-56
2023/09/27 08:18:38;;;;;;;7.10;3.70;;;;;;;15.63;100.00;100561.34;5024692;28;20283;-57
2023/09/27 08:21:09;;;;;;;7.00;3.77;;;;;;;15.53;100.00;100551.09;5016538;28;20291;-59
2023/09/27 08:23:41;;;;;;;8.07;3.87;;;;;;;15.45;100.00;100563.66;5026912;28;20330;-56
2023/09/27 08:26:13;;;;;;;7.90;3.90;;;;;;;15.24;100.00;100549.38;5016806;28;20284;-57
2023/09/27 08:28:46;;;;;;;16.43;4.20;;;;;;;15.15;100.00;100567.22;5026769;28;20291;-58
2023/09/27 08:31:17;;;;;;;12.27;4.23;;;;;;;14.97;100.00;100566.88;5016248;28;20367;-59
2023/09/27 08:33:48;;;;;;;9.07;3.50;;;;;;;14.81;100.00;100570.88;5026430;28;20346;-59
2023/09/27 08:36:18;;;;;;;13.00;4.10;;;;;;;14.75;100.00;100581.56;5016034;28;20358;-59
2023/09/27 08:38:49;;;;;;;9.73;3.67;;;;;;;14.66;100.00;100583.56;5027385;28;20311;-59
2023/09/27 08:41:22;;;;;;;12.13;3.63;;;;;;;14.61;100.00;100580.19;5016561;28;20394;-59
2023/09/27 08:43:57;;;;;;;13.27;3.93;;;;;;;14.55;100.00;100596.16;5026564;28;20294;-59
2023/09/27 08:46:29;;;;;;;10.13;3.83;;;;;;;14.54;100.00;100588.28;5016057;28;21886;-58
2023/09/27 08:49:00;;;;;;;11.27;4.00;;;;;;;14.48;100.00;100589.28;5013580;28;20619;-61
2023/09/27 08:51:31;;;;;;;10.70;4.03;;;;;;;14.51;100.00;100599.72;5002926;28;20283;-61
2023/09/27 08:54:02;;;;;;;5.80;3.60;;;;;;;14.48;100.00;100604.19;5031532;28;20391;-62
2023/09/27 08:56:34;;;;;;;8.03;3.80;;;;;;;14.48;100.00;100604.19;5031434;28;20412;-61
2023/09/27 08:59:08;;;;;;;13.03;3.80;;;;;;;14.49;100.00;100600.66;5039315;28;20279;-61
2023/09/27 09:01:51;;;;;;;7.63;3.90;;;;;;;14.48;100.00;100599.81;5040248;28;21062;-60
2023/09/27 09:04:24;;;;;;;7.60;3.90;;;;;;;14.38;100.00;100593.09;5029327;28;20291;-60
2023/09/27 09:06:55;;;;;;;8.57;4.00;;;;;;;14.33;100.00;100601.09;5041352;28;20760;-58
2023/09/27 09:09:28;;;;;;;6.57;3.90;;;;;;;14.38;100.00;100622.00;5030210;28;20754;-60
2023/09/27 09:12:08;;;;;;;7.43;3.90;;;;;;;14.29;100.00;100603.84;5040929;28;20293;-61
2023/09/27 09:14:44;;;;;;;11.50;4.50;;;;;;;14.34;100.00;100617.72;5032068;28;20374;-60
2023/09/27 09:17:18;;;;;;;11.37;3.90;;;;;;;14.33;100.00;100621.25;5030909;28;20370;-58
2023/09/27 09:20:23;;;;;;;6.47;3.83;;;;;;;14.30;100.00;100621.31;5041540;28;20282;-60
2023/09/27 09:22:57;;;;;;;7.57;4.10;;;;;;;14.22;100.00;100619.75;5030705;28;20732;-60
2023/09/27 09:25:31;;;;;;;9.47;4.17;;;;;;;14.21;100.00;100628.53;5017847;28;20821;-60
2023/09/27 09:28:08;;;;;;;9.73;3.90;;;;;;;14.12;100.00;100618.25;5012701;28;20670;-58
2023/09/27 09:30:44;;;;;;;6.30;4.00;;;;;;;13.77;100.00;100574.47;5022924;28;20299;-59
2023/09/27 09:33:19;;;;;;;8.47;3.80;;;;;;;13.98;100.00;100630.91;5029940;28;20753;-60
2023/09/27 09:35:53;;;;;;;7.87;4.30;;;;;;;13.84;100.00;100625.09;5040693;28;20294;-59
2023/09/27 09:38:29;;;;;;;5.60;3.50;;;;;;;13.77;100.00;100633.13;5029506;28;20348;-58
2023/09/27 09:41:04;;;;;;;7.07;3.93;;;;;;;13.77;100.00;100638.38;5040456;28;20285;-59
2023/09/27 09:43:38;;;;;;;8.63;4.20;;;;;;;13.72;100.00;100640.25;5029424;28;20339;-59
2023/09/27 09:46:14;;;;;;;8.40;4.77;;;;;;;13.67;100.00;100636.84;5030792;28;20710;-60
2023/09/27 09:48:46;;;;;;;7.47;4.20;;;;;;;13.57;100.00;100620.44;5040734;28;20294;-60
2023/09/27 09:51:18;;;;;;;6.00;4.07;;;;;;;13.64;100.00;100636.94;5030474;28;20854;-56
2023/09/27 09:53:51;;;;;;;7.47;3.87;;;;;;;13.66;100.00;100639.53;5040715;28;20313;-55
2023/09/27 09:56:24;;;;;;;7.43;4.00;;;;;;;13.61;100.00;100621.25;5030299;28;20512;-57
2023/09/27 09:59:07;;;;;;;12.77;4.63;;;;;;;13.59;100.00;100623.91;5040896;28;20286;-58
2023/09/27 10:01:42;;;;;;;8.37;4.60;;;;;;;13.56;100.00;100617.88;5030088;28;20344;-60
2023/09/27 10:04:16;;;;;;;9.10;4.47;;;;;;;13.36;100.00;100595.56;5030191;28;20386;-62
2023/09/27 10:06:48;;;;;;;7.50;4.30;;;;;;;13.60;100.00;100630.03;5039870;28;21093;-61
2023/09/27 10:09:21;;;;;;;10.70;5.20;;;;;;;13.28;100.00;100579.13;5029498;28;20585;-61
2023/09/27 10:11:53;;;;;;;6.63;4.13;;;;;;;13.60;100.00;100616.88;5039313;28;20601;-60
2023/09/27 10:14:25;;;;;;;9.20;4.50;;;;;;;13.67;100.00;100621.09;5029919;28;20271;-59
2023/09/27 10:16:58;;;;;;;10.17;4.20;;;;;;;13.68;100.00;100612.34;5040185;28;20318;-61
2023/09/27 10:19:32;;;;;;;11.00;4.73;;;;;;;13.57;100.00;100593.34;5030013;28;20302;-60
2023/09/27 10:22:14;;;;;;;11.40;4.57;;;;;;;13.61;100.00;100616.00;5040280;28;20361;-62
2023/09/27 10:24:45;;;;;;;9.03;4.73;;;;;;;13.58;100.00;100621.34;5030378;28;20275;-62
2023/09/27 10:27:18;;;;;;;8.17;4.37;;;;;;;13.55;100.00;100616.13;5029629;28;20306;-60
2023/09/27 10:30:00;;;;;;;6.80;4.80;;;;;;;13.46;100.00;100611.13;5039813;28;20279;-59
2023/09/27 10:32:34;;;;;;;12.33;5.53;;;;;;;13.50;100.00;100615.38;5027278;28;20303;-62
2023/09/27 10:35:21;;;;;;;7.70;4.80;;;;;;;13.46;100.00;100626.88;5048543;28;20291;-59
2023/09/27 10:38:04;;;;;;;10.07;4.97;;;;;;;13.42;100.00;100622.56;5019813;28;20291;-60
2023/09/27 10:40:43;;;;;;;8.93;5.23;;;;;;;13.37;100.00;100618.28;5010033;28;20302;-60
2023/09/27 10:43:40;;;;;;;8.30;5.07;;;;;;;13.36;100.00;100621.81;5024144;28;20310;-59
2023/09/27 10:46:13;;;;;;;7.87;5.17;;;;;;;13.45;100.00;100622.50;5011198;28;20405;-60
2023/09/27 10:48:55;;;;;;;11.67;4.77;;;;;;;13.40;100.00;100621.72;5011983;28;20300;-60
2023/09/27 10:51:26;;;;;;;9.07;4.60;;;;;;;13.40;100.00;100616.50;5000108;28;20429;-61
2023/09/27 10:53:59;;;;;;;7.53;5.23;;;;;;;13.24;100.00;100595.81;5009702;28;20279;-61
2023/09/27 10:56:31;;;;;;;8.40;5.23;;;;;;;13.32;100.00;100601.78;5000099;28;20296;-59
2023/09/27 10:59:03;;;;;;;11.67;5.20;;;;;;;13.27;100.00;100616.75;5011064;28;20287;-61
2023/09/27 11:01:35;;;;;;;10.30;5.37;;;;;;;13.27;100.00;100622.00;5029527;28;20273;-59
2023/09/27 11:04:12;;;;;;;15.63;6.23;;;;;;;13.30;100.00;100611.44;5033949;28;20752;-61
2023/09/27 11:06:47;;;;;;;11.10;5.63;;;;;;;13.17;100.00;100594.22;5050675;28;20624;-60
2023/09/27 11:09:20;;;;;;;18.67;6.40;;;;;;;13.22;100.00;100602.84;5037940;28;20281;-60
2023/09/27 11:11:54;;;;;;;14.73;7.50;;;;;;;13.31;100.00;100634.16;5048406;28;20286;-61
2023/09/27 11:14:31;;;;;;;17.70;6.90;;;;;;;13.30;100.00;100631.56;5037747;28;20382;-62
2023/09/27 11:17:23;;;;;;;19.93;7.10;;;;;;;13.30;100.00;100636.81;5048670;28;20295;-61
2023/09/27 11:19:57;;;;;;;23.63;7.10;;;;;;;13.24;100.00;100622.03;5031632;28;20283;-60
2023/09/27 11:22:30;;;;;;;22.27;7.47;;;;;;;13.24;100.00;100627.28;5028330;28;20296;-60
2023/09/27 11:25:03;;;;;;;19.30;7.20;;;;;;;13.20;100.00;100615.13;5039092;28;20287;-60
2023/09/27 11:27:35;;;;;;;26.10;7.00;;;;;;;13.21;100.00;100622.13;5032049;28;20398;-60
2023/09/27 11:30:10;;;;;;;28.53;7.10;;;;;;;13.21;100.00;100627.38;5042387;28;20286;-59
2023/09/27 11:32:51;;;;;;;19.33;7.03;;;;;;;13.19;100.00;100618.66;5020855;28;20337;-60
2023/09/27 11:35:27;;;;;;;23.53;8.83;;;;;;;13.15;100.00;100622.22;5032661;28;20621;-60
2023/09/27 11:38:13;;;;;;;20.20;7.93;;;;;;;12.57;100.00;100521.19;5042510;28;20282;-59
2023/09/27 11:40:46;;;;;;;23.10;9.23;;;;;;;13.19;100.00;100623.91;5011513;28;20280;-61